Briefing drone pour Rilhac-rancon

Rechercher une autre localisation

Conditions de vol :


Nous sommes le : Mardi 02 mars 2021
Il est 03:59 UTC (04:59 LT)

Lever de soleil : 06:04 UTC (07:04 LT)
Coucher de soleil : 18:09 UTC (19:09 LT)

Météo

L'essentiel des conditions de vol

VIGILANCE MÉTÉO FRANCE - Haute-Vienne (87)
Pas de vigilances particulieres
CARTE TEMSI
CARTES DES FRONTS
METAR de LFBL
LFBL 020330Z AUTO 11007KT CAVOK 09/M02 Q1024 NOSIG

Date d'émission: 02/03/2021
Heure d'émission: 03:30 UTC
Vent: 110° pour 7 KT (13 km/h)
Visibilité horizontale: > 10 km
Plafond : Plafond et visibilité OK (CAVOK)
Température: 9 °C
Point de rosée: -2 °C
Humidité: 46%
Pression (QNH): 1024 hPa
Conditions: Pas de changement dans les 2 heures (NOSIG)
TAF de LFBL
LFBL 011700Z 0118/0218 VRB03KT CAVOK

Conditions prévues :

Heure d'émission : Bulletin éffectué le 01 à 18:00 UTC
Prévision : Valide du 01 a 18:00 UTC au 02 a 18:00 UTC
Vent : Variable pour 3 KT (6 km/h)
Visibilité : > 10 km
WEBCAM POUR RILHAC-RANCON

Réglementation

Voler en sécurité

CARTES AERONAUTIQUE 1/500.000
CARTES VAC (LFBL)
SUP AIP




Chargement des AIP...
NOTAM (RILHAC-RANCON + Terrain à proximité / FIR )




Chargement des NOTAMS...
CONTACT PREFECTURE 87


Avertissement : Les données mises à disposition sont indicatives. Oxygène Drone ne pourra être tenu responsable de dégâts causés aux biens et aux personnes.